Peer, Belgium
Current Conditions -  °F | °C
As of 3:14 PM on Sunday 25 Jan 2015 (Local Time) from EBBL Reporting Station
Broken Clouds Broken Clouds  
Wind Chill: 34°   Ceiling: 5000
Heat Index: 37°   Visibility: 3mi
Dew Point: 36°   Wind: 5mph
Humidity: 93%   Direction: 210°SSW
Pressure: 30.39"   Gusts: NA
Location:  51.13°N, 5.46°E
Report Text: EBBL 251414Z AUTO 21004KT 5000 FEW004/// SCT006/// BKN050/// 03/02 Q1029 YLO
Loading
Personal Weather Stations






























Interactive Weather Map New forecast layout! Learn more

10-Day Weather Forecast

Advertisements
Track Severe Weather on mobile